createdAt,value
2024-02-21T00:00:01.738Z,1013.4696600752977
2024-02-21T00:15:02.499Z,1013.1197500969062
2024-02-21T00:30:02.182Z,1012.840149333973
2024-02-21T00:45:01.832Z,1012.8533252899559
2024-02-21T01:00:02.475Z,1012.8196598451404
2024-02-21T01:15:02.080Z,1012.7672066872233
2024-02-21T01:30:01.720Z,1012.5613684173143
2024-02-21T02:15:02.298Z,1011.9417148492785
2024-02-21T02:30:01.950Z,1011.4691524118863
2024-02-21T02:45:01.656Z,1011.0843234987269
2024-02-21T03:00:02.291Z,1011.2138078000644
2024-02-21T03:15:02.018Z,1011.2951516559177
2024-02-21T03:30:01.722Z,1011.3596500452421
2024-02-21T03:45:02.363Z,1011.3446698116744
2024-02-21T04:00:01.968Z,1011.3446698116744
2024-02-21T04:15:01.638Z,1011.0629662542248
2024-02-21T04:30:02.308Z,1010.9725435257278
2024-02-21T04:45:01.920Z,1011.0097936001175
2024-02-21T05:00:01.523Z,1010.9342057260073
2024-02-21T05:15:02.179Z,1010.6575416053727
2024-02-21T05:30:02.417Z,1010.5701759652818
2024-02-21T05:45:02.051Z,1010.3513542652985
2024-02-21T06:00:01.680Z,1010.3575781253485
2024-02-21T06:15:02.277Z,1010.459790108883
2024-02-21T06:30:01.933Z,1010.1599707211237
2024-02-21T06:45:01.564Z,1010.0088285366182
2024-02-21T07:00:02.194Z,1009.7930415913902
2024-02-21T07:15:03.068Z,1010.0192560025217
2024-02-21T07:30:01.715Z,1010.0504940233219
2024-02-21T07:45:02.407Z,1010.1070060874878
2024-02-21T08:00:02.080Z,1009.9388842328299
2024-02-21T08:15:01.765Z,1009.7504145530767
2024-02-21T08:30:02.457Z,1009.4599747969722
2024-02-21T08:45:02.087Z,1009.2818382189456
2024-02-21T09:00:01.741Z,1009.2395694052038
2024-02-21T09:15:02.450Z,1009.1325980583864
2024-02-21T09:30:02.285Z,1009.0255722918669
2024-02-21T09:45:02.025Z,1008.6861062770872
2024-02-21T10:00:01.618Z,1008.6297547347752
2024-02-21T10:15:02.320Z,1008.6167536472091
2024-02-21T10:30:02.054Z,1008.5367297852038
2024-02-21T10:45:01.711Z,1008.2434606477847
2024-02-21T11:00:02.414Z,1007.8862068028869
2024-02-21T11:15:02.169Z,1007.5116215471598
2024-02-21T11:30:01.872Z,1007.1695695295149
2024-02-21T11:45:02.592Z,1006.9630378759293
2024-02-21T12:00:04.564Z,1006.7599277991595
2024-02-21T12:15:02.140Z,1006.4601017211334
2024-02-21T12:30:01.764Z,1006.0091209409351
2024-02-21T12:45:02.504Z,1005.6851227432634
2024-02-21T13:00:02.189Z,1005.2074402736724
2024-02-21T13:15:01.820Z,1004.595474336918
2024-02-21T13:30:02.551Z,1004.2315556390558
2024-02-21T13:45:02.196Z,1004.1863319652471
2024-02-21T14:00:01.875Z,1004.0252875012932
2024-02-21T14:15:02.476Z,1003.5496648190367
2024-02-21T14:30:02.104Z,1002.930887743395
2024-02-21T14:45:01.762Z,1002.1772839485342
2024-02-21T15:00:02.753Z,1002.0712726575497
2024-02-21T15:15:01.686Z,1001.4502558421507
2024-02-21T15:30:02.414Z,1001.1341049643398
2024-02-21T15:45:02.121Z,1000.7729936337223
2024-02-21T16:00:01.783Z,1000.6393082015674
2024-02-21T16:15:02.447Z,1000.3940080246732
2024-02-21T16:30:02.059Z,1000.2594492893218
2024-02-21T16:45:01.790Z,1000.0494947175304
2024-02-21T17:00:02.451Z,999.8669888208964
2024-02-21T17:15:02.084Z,999.5908175402337
2024-02-21T17:30:01.860Z,999.1930760976638
2024-02-21T17:45:02.510Z,998.9320643628407
2024-02-21T18:00:02.152Z,998.7517687370633
2024-02-21T18:15:01.735Z,998.2737466499775
2024-02-21T18:30:02.399Z,997.9478239323756
2024-02-21T18:45:02.094Z,997.5582421024185
2024-02-21T19:00:01.752Z,997.0176534806685
2024-02-21T19:15:02.384Z,996.9403807098824
2024-02-21T19:30:02.066Z,996.7848642572155
2024-02-21T19:45:01.697Z,996.5742284922909
2024-02-21T20:00:02.335Z,996.0724313191297
2024-02-21T20:15:01.989Z,995.8242813972408
2024-02-21T20:30:01.625Z,995.3922223607292
2024-02-21T20:45:02.288Z,995.2129144038573
2024-02-21T21:00:01.993Z,994.95870237464
2024-02-21T21:15:01.622Z,994.7715455095178
2024-02-21T21:30:02.438Z,994.5613406040893
2024-02-21T21:45:02.129Z,994.3342848217512
2024-02-21T22:00:01.802Z,993.9973288943544
2024-02-21T22:15:02.454Z,993.7507065143668
2024-02-21T22:30:02.169Z,993.3310942188537
2024-02-21T22:45:01.916Z,993.2638819250908
2024-02-21T23:00:02.548Z,992.9396916735375
2024-02-21T23:15:02.286Z,992.5625756307606
2024-02-21T23:30:02.007Z,992.3337861451095
2024-02-21T23:45:01.673Z,992.1469057543981
